Weather at Solomon Airport

Public forecast

Using degrees Celsius for public forecast. Weather courtesy of forecast.io.

Closest aviation weather report (METAR) to Solomon Airport

Closest report is Port Hedland International Airport, 120.9 nm (223.8 km) NNE.

2024/05/21 01:30 (retrieved 40 minutes ago)

YPPD 210130Z AUTO 10020KT 9999 // NCD 25/M09 Q1019 RF000/0000

Closest aviation forecast (TAF) to Solomon Airport

Forecast is more than 12 hours old.

Closest forecast is Koumac Airport, 2,586.0 nm (4,789.2 km) E.

2024/05/20 06:00 Ammendment (retrieved 20 hours ago)

TAF AMD NWWD 200500Z 2006/2106 CNL TAF AMD NWWK 200500Z 2006/2106 CNL